Denak Voyager — TCUX2 — position and weather

sailwx.info

Track history (hours):
 
Tides and Currents Weather Stations Pressure Air Temp Water Temp Dewpoint Dewpoint Depression Visibility Wind Speed Wind Dir Waves Ship Positions

Denak Voyager

Last reported at 2018-Jun-13 04:57 UTC. Time now 2018-Jun-21 04:10 UTC.
Position N 40°44' E 029°15'.

Length 224 m; draft 11.6 m.

Type: Cargo ship. MMSI: 271043241.

Date/timePositionNaut miles runAvg speedWind from/ knotsBaromVisibWave heightAir tempDewpointWater temp
2018-Jun-13 04:57N 40°44' E 029°15'510.9
2018-Jun-13 04:30N 40°44' E 029°09'611.3
2018-Jun-13 04:00N 40°44' E 029°01'610.9
2018-Jun-13 03:29N 40°44' E 028°54'510.7
2018-Jun-13 03:00N 40°44' E 028°47'510.9
2018-Jun-13 02:30N 40°44' E 028°40'611.2
2018-Jun-13 02:00N 40°44' E 028°33'611.1
2018-Jun-13 01:30N 40°44' E 028°25'611.1
2018-Jun-13 01:00N 40°44' E 028°18'611.5
2018-Jun-13 00:31N 40°44' E 028°10'611.1
2018-Jun-12 23:58N 40°44' E 028°02'711.0
2018-Jun-12 23:20N 40°44' E 027°53'411.1
2018-Jun-12 23:00N 40°44' E 027°48'115 8.6
2018-Jun-12 09:41N 39°39' E 025°44'3210.6
2018-Jun-12 06:41N 39°11' E 025°26'211.1
2018-Jun-12 06:30N 39°09' E 025°25'811.4
2018-Jun-12 05:48N 39°02' E 025°21'1411.3
2018-Jun-12 04:36N 38°50' E 025°13'111.5
2018-Jun-12 04:29N 38°49' E 025°12'611.5
2018-Jun-12 04:00N 38°44' E 025°09'50710.2
2018-Jun-10 02:25N 36°23' E 014°54'511.9
2018-Jun-10 02:00N 36°23' E 014°48'612.0
2018-Jun-10 01:30N 36°23' E 014°41'611.9
2018-Jun-10 01:00N 36°23' E 014°33'611.6
2018-Jun-10 00:30N 36°25' E 014°26'611.5
2018-Jun-10 00:00N 36°26' E 014°20'611.5
2018-Jun-09 23:30N 36°28' E 014°13'611.6
2018-Jun-09 23:00N 36°29' E 014°06'611.5
2018-Jun-09 22:30N 36°31' E 013°59'611.6
2018-Jun-09 22:00N 36°32' E 013°52'611.8
2018-Jun-09 21:30N 36°34' E 013°45'611.7
2018-Jun-09 21:00N 36°35' E 013°37'611.6
2018-Jun-09 20:30N 36°37' E 013°31'611.7
2018-Jun-09 20:00N 36°39' E 013°24'611.5
2018-Jun-09 19:30N 36°40' E 013°17'611.5
2018-Jun-09 19:00N 36°42' E 013°10'611.4
2018-Jun-09 18:30N 36°44' E 013°03'611.3
2018-Jun-09 18:00N 36°46' E 012°57'611.3
2018-Jun-09 17:27N 36°47' E 012°49'511.3
2018-Jun-09 17:00N 36°48' E 012°43'45011.7
2018-Jun-08 02:39N 37°01' E 003°20'211.7
2018-Jun-08 02:28N 37°01' E 003°17'511.5
2018-Jun-08 02:00N 37°01' E 003°10'611.5
2018-Jun-08 01:30N 37°00' E 003°03'1811.9
2018-Jun-08 00:00N 36°58' E 002°41'812.2
2018-Jun-07 23:21N 36°57' E 002°31'412.4
2018-Jun-07 23:00N 36°56' E 002°26'612.6
2018-Jun-07 22:30N 36°55' E 002°18'1112.6
2018-Jun-07 21:36N 36°53' E 002°04'112.8
2018-Jun-07 21:30N 36°53' E 002°03'812.5
2018-Jun-07 20:51N 36°52' E 001°53'412.3
2018-Jun-07 20:30N 36°51' E 001°47'612.3
2018-Jun-07 20:00N 36°50' E 001°40'812.2
2018-Jun-07 19:19N 36°49' E 001°29'412.5
2018-Jun-07 18:59N 36°49' E 001°24'712.6
2018-Jun-07 18:24N 36°48' E 001°15'613.1
2018-Jun-07 17:58N 36°47' E 001°08'612.5
2018-Jun-07 17:30N 36°46' E 001°01'712.4
2018-Jun-07 16:54N 36°45' E 000°52'512.3
2018-Jun-07 16:29N 36°44' E 000°45'612.1
2018-Jun-07 16:00N 36°43' E 000°38'612.0
2018-Jun-07 15:29N 36°42' E 000°31'612.1
2018-Jun-07 15:00N 36°41' E 000°23'612.2
2018-Jun-07 14:30N 36°40' E 000°16'612.3
2018-Jun-07 14:00N 36°40' E 000°08'1812.5
2018-Jun-07 12:31N 36°37' W 000°14'2612.0
2018-Jun-07 10:22N 36°33' W 000°46'21612.4
2018-Jun-06 16:58N 36°01' W 005°11'613.8
2018-Jun-06 16:30N 35°60' W 005°19'713.8
2018-Jun-06 16:00N 35°58' W 005°27'  
2018-Jun-03 14:16N 37°48' W 023°26'411.7
2018-Jun-03 13:56N 37°49' W 023°31'511.8
2018-Jun-03 13:30N 37°49' W 023°37'812.0
2018-Jun-03 12:51N 37°50' W 023°47'1012.1
2018-Jun-03 12:02N 37°52' W 023°59'111.4
2018-Jun-03 11:59N 37°52' W 024°00'711.9
2018-Jun-03 11:25N 37°53' W 024°08'511.6
2018-Jun-03 11:00N 37°53' W 024°15'611.8
2018-Jun-03 10:30N 37°54' W 024°22'611.4
2018-Jun-03 10:00N 37°55' W 024°29'611.7
2018-Jun-03 09:30N 37°55' W 024°36'611.9
2018-Jun-03 09:00N 37°56' W 024°44'611.7
2018-Jun-03 08:30N 37°57' W 024°51'611.6
2018-Jun-03 08:00N 37°57' W 024°59'611.8
2018-Jun-03 07:30N 37°58' W 025°06'611.9
2018-Jun-03 07:00N 37°59' W 025°14'612.0
2018-Jun-03 06:30N 37°60' W 025°21'612.2
2018-Jun-03 06:00N 38°00' W 025°29'612.2
2018-Jun-03 05:30N 38°01' W 025°36'611.7
2018-Jun-03 05:00N 38°02' W 025°44'  
Track history (hours):
 
Tides and Currents Weather Stations Pressure Air Temp Water Temp Dewpoint Dewpoint Depression Visibility Wind Speed Wind Dir Waves Ship Positions

Denak Voyager

Last reported at 2018-Jun-13 04:57 UTC. Time now 2018-Jun-21 04:10 UTC.
Position N 40°44' E 029°15'.

Length 224 m; draft 11.6 m.

Type: Cargo ship. MMSI: 271043241.

Date/timePositionNaut miles runAvg speedWind from/ knotsBaromVisibWave heightAir tempDewpointWater temp
2018-Jun-13 04:57N 40°44' E 029°15'510.9
2018-Jun-13 04:30N 40°44' E 029°09'611.3
2018-Jun-13 04:00N 40°44' E 029°01'610.9
2018-Jun-13 03:29N 40°44' E 028°54'510.7
2018-Jun-13 03:00N 40°44' E 028°47'510.9
2018-Jun-13 02:30N 40°44' E 028°40'611.2
2018-Jun-13 02:00N 40°44' E 028°33'611.1
2018-Jun-13 01:30N 40°44' E 028°25'611.1
2018-Jun-13 01:00N 40°44' E 028°18'611.5
2018-Jun-13 00:31N 40°44' E 028°10'611.1
2018-Jun-12 23:58N 40°44' E 028°02'711.0
2018-Jun-12 23:20N 40°44' E 027°53'411.1
2018-Jun-12 23:00N 40°44' E 027°48'115 8.6
2018-Jun-12 09:41N 39°39' E 025°44'3210.6
2018-Jun-12 06:41N 39°11' E 025°26'211.1
2018-Jun-12 06:30N 39°09' E 025°25'811.4
2018-Jun-12 05:48N 39°02' E 025°21'1411.3
2018-Jun-12 04:36N 38°50' E 025°13'111.5
2018-Jun-12 04:29N 38°49' E 025°12'611.5
2018-Jun-12 04:00N 38°44' E 025°09'50710.2
2018-Jun-10 02:25N 36°23' E 014°54'511.9
2018-Jun-10 02:00N 36°23' E 014°48'612.0
2018-Jun-10 01:30N 36°23' E 014°41'611.9
2018-Jun-10 01:00N 36°23' E 014°33'611.6
2018-Jun-10 00:30N 36°25' E 014°26'611.5
2018-Jun-10 00:00N 36°26' E 014°20'611.5
2018-Jun-09 23:30N 36°28' E 014°13'611.6
2018-Jun-09 23:00N 36°29' E 014°06'611.5
2018-Jun-09 22:30N 36°31' E 013°59'611.6
2018-Jun-09 22:00N 36°32' E 013°52'611.8
2018-Jun-09 21:30N 36°34' E 013°45'611.7
2018-Jun-09 21:00N 36°35' E 013°37'611.6
2018-Jun-09 20:30N 36°37' E 013°31'611.7
2018-Jun-09 20:00N 36°39' E 013°24'611.5
2018-Jun-09 19:30N 36°40' E 013°17'611.5
2018-Jun-09 19:00N 36°42' E 013°10'611.4
2018-Jun-09 18:30N 36°44' E 013°03'611.3
2018-Jun-09 18:00N 36°46' E 012°57'611.3
2018-Jun-09 17:27N 36°47' E 012°49'511.3
2018-Jun-09 17:00N 36°48' E 012°43'45011.7
2018-Jun-08 02:39N 37°01' E 003°20'211.7
2018-Jun-08 02:28N 37°01' E 003°17'511.5
2018-Jun-08 02:00N 37°01' E 003°10'611.5
2018-Jun-08 01:30N 37°00' E 003°03'1811.9
2018-Jun-08 00:00N 36°58' E 002°41'812.2
2018-Jun-07 23:21N 36°57' E 002°31'412.4
2018-Jun-07 23:00N 36°56' E 002°26'612.6
2018-Jun-07 22:30N 36°55' E 002°18'1112.6
2018-Jun-07 21:36N 36°53' E 002°04'112.8
2018-Jun-07 21:30N 36°53' E 002°03'812.5
2018-Jun-07 20:51N 36°52' E 001°53'412.3
2018-Jun-07 20:30N 36°51' E 001°47'612.3
2018-Jun-07 20:00N 36°50' E 001°40'812.2
2018-Jun-07 19:19N 36°49' E 001°29'412.5
2018-Jun-07 18:59N 36°49' E 001°24'712.6
2018-Jun-07 18:24N 36°48' E 001°15'613.1
2018-Jun-07 17:58N 36°47' E 001°08'612.5
2018-Jun-07 17:30N 36°46' E 001°01'712.4
2018-Jun-07 16:54N 36°45' E 000°52'512.3
2018-Jun-07 16:29N 36°44' E 000°45'612.1
2018-Jun-07 16:00N 36°43' E 000°38'612.0
2018-Jun-07 15:29N 36°42' E 000°31'612.1
2018-Jun-07 15:00N 36°41' E 000°23'612.2
2018-Jun-07 14:30N 36°40' E 000°16'612.3
2018-Jun-07 14:00N 36°40' E 000°08'1812.5
2018-Jun-07 12:31N 36°37' W 000°14'2612.0
2018-Jun-07 10:22N 36°33' W 000°46'21612.4
2018-Jun-06 16:58N 36°01' W 005°11'613.8
2018-Jun-06 16:30N 35°60' W 005°19'713.8
2018-Jun-06 16:00N 35°58' W 005°27'  
2018-Jun-03 14:16N 37°48' W 023°26'411.7
2018-Jun-03 13:56N 37°49' W 023°31'511.8
2018-Jun-03 13:30N 37°49' W 023°37'812.0
2018-Jun-03 12:51N 37°50' W 023°47'1012.1
2018-Jun-03 12:02N 37°52' W 023°59'111.4
2018-Jun-03 11:59N 37°52' W 024°00'711.9
2018-Jun-03 11:25N 37°53' W 024°08'511.6
2018-Jun-03 11:00N 37°53' W 024°15'611.8
2018-Jun-03 10:30N 37°54' W 024°22'611.4
2018-Jun-03 10:00N 37°55' W 024°29'611.7
2018-Jun-03 09:30N 37°55' W 024°36'611.9
2018-Jun-03 09:00N 37°56' W 024°44'611.7
2018-Jun-03 08:30N 37°57' W 024°51'611.6
2018-Jun-03 08:00N 37°57' W 024°59'611.8
2018-Jun-03 07:30N 37°58' W 025°06'611.9
2018-Jun-03 07:00N 37°59' W 025°14'612.0
2018-Jun-03 06:30N 37°60' W 025°21'612.2
2018-Jun-03 06:00N 38°00' W 025°29'612.2
2018-Jun-03 05:30N 38°01' W 025°36'611.7
2018-Jun-03 05:00N 38°02' W 025°44'  

Dump ship's entire track history